createdAt,value
2018-05-03T00:01:41.311Z,5.43
2018-05-03T00:04:09.740Z,5.97
2018-05-03T00:06:38.279Z,5.80
2018-05-03T00:09:06.511Z,6.43
2018-05-03T00:11:34.997Z,5.57
2018-05-03T00:14:03.517Z,5.97
2018-05-03T00:16:32.022Z,6.60
2018-05-03T00:19:00.154Z,6.70
2018-05-03T00:21:28.622Z,5.93
2018-05-03T00:23:57.082Z,6.33
2018-05-03T00:26:25.599Z,5.33
2018-05-03T00:28:54.881Z,6.10
2018-05-03T00:31:23.345Z,6.10
2018-05-03T00:33:51.990Z,5.07
2018-05-03T00:36:20.402Z,5.00
2018-05-03T00:38:48.795Z,6.00
2018-05-03T00:41:17.458Z,5.00
2018-05-03T00:43:45.922Z,5.23
2018-05-03T00:46:14.337Z,5.73
2018-05-03T00:48:43.108Z,6.10
2018-05-03T00:51:11.591Z,5.17
2018-05-03T00:53:40.075Z,6.70
2018-05-03T00:56:08.707Z,6.33
2018-05-03T00:58:37.202Z,6.53
2018-05-03T01:01:05.590Z,6.40
2018-05-03T01:03:34.088Z,6.43
2018-05-03T01:06:02.555Z,7.20
2018-05-03T01:08:31.176Z,7.07
2018-05-03T01:10:59.683Z,6.27
2018-05-03T01:13:28.168Z,5.83
2018-05-03T01:15:56.589Z,6.00
2018-05-03T01:18:25.071Z,6.03
2018-05-03T01:20:53.550Z,6.90
2018-05-03T01:23:25.753Z,6.40
2018-05-03T01:25:54.190Z,6.20
2018-05-03T01:28:22.655Z,6.80
2018-05-03T01:30:51.113Z,6.33
2018-05-03T01:33:19.569Z,7.13
2018-05-03T01:35:58.882Z,7.43
2018-05-03T01:38:27.369Z,7.13
2018-05-03T01:40:55.772Z,7.80
2018-05-03T01:43:24.282Z,6.70
2018-05-03T01:45:52.808Z,7.10
2018-05-03T01:48:21.375Z,5.43
2018-05-03T01:50:50.673Z,6.53
2018-05-03T01:53:19.147Z,6.93
2018-05-03T01:55:47.622Z,6.10
2018-05-03T01:58:16.105Z,6.80
2018-05-03T02:00:45.293Z,6.30
2018-05-03T02:03:13.719Z,7.40
2018-05-03T02:05:42.206Z,7.73
2018-05-03T02:08:10.690Z,7.80
2018-05-03T02:10:39.993Z,7.50
2018-05-03T02:13:09.294Z,7.97
2018-05-03T02:15:37.763Z,8.83
2018-05-03T02:18:05.829Z,7.60
2018-05-03T02:20:33.662Z,8.40
2018-05-03T02:23:02.830Z,9.60
2018-05-03T02:25:31.291Z,7.37
2018-05-03T02:27:59.835Z,8.80
2018-05-03T02:30:28.300Z,8.90
2018-05-03T02:32:56.828Z,9.30
2018-05-03T02:35:25.345Z,8.33
2018-05-03T02:37:54.566Z,7.73
2018-05-03T02:40:22.974Z,8.30
2018-05-03T02:42:51.385Z,7.97
2018-05-03T02:45:19.781Z,9.70
2018-05-03T02:47:48.249Z,12.33
2018-05-03T02:50:16.621Z,9.73
2018-05-03T02:52:45.882Z,11.10
2018-05-03T02:55:14.327Z,13.37
2018-05-03T02:58:13.216Z,12.13
2018-05-03T03:00:58.125Z,11.27
2018-05-03T03:03:43.725Z,11.57
2018-05-03T03:06:28.713Z,11.80
2018-05-03T03:12:35.090Z,12.77
2018-05-03T03:15:20.429Z,12.77
2018-05-03T03:18:05.655Z,11.37
2018-05-03T03:21:00.577Z,13.73
2018-05-03T03:23:45.646Z,13.37
2018-05-03T03:30:07.385Z,14.47
2018-05-03T03:32:47.744Z,13.90
2018-05-03T03:38:27.410Z,15.03
2018-05-03T03:41:07.361Z,18.93
2018-05-03T03:43:47.000Z,16.73
2018-05-03T03:46:15.454Z,17.27
2018-05-03T03:48:44.401Z,15.33
2018-05-03T03:51:12.873Z,19.90
2018-05-03T03:53:42.457Z,18.50
2018-05-03T03:56:10.854Z,20.57
2018-05-03T03:58:39.319Z,17.17
2018-05-03T04:01:11.009Z,19.30
2018-05-03T04:03:39.632Z,18.50
2018-05-03T04:06:08.182Z,17.70
2018-05-03T04:08:36.624Z,16.33
2018-05-03T04:11:05.097Z,19.13
2018-05-03T04:13:33.510Z,19.67
2018-05-03T04:16:02.711Z,19.20
2018-05-03T04:18:43.087Z,16.27
2018-05-03T04:24:20.535Z,18.70
2018-05-03T04:26:51.303Z,17.10
2018-05-03T04:29:19.707Z,16.37
2018-05-03T04:31:51.929Z,15.53
2018-05-03T04:34:20.598Z,16.03
2018-05-03T04:36:49.071Z,16.37
2018-05-03T04:41:58.599Z,16.00
2018-05-03T04:44:27.476Z,14.70
2018-05-03T04:46:55.983Z,15.00
2018-05-03T04:49:26.173Z,17.77
2018-05-03T04:51:54.703Z,14.87
2018-05-03T04:54:29.412Z,15.27
2018-05-03T04:56:57.892Z,16.10
2018-05-03T04:59:27.101Z,14.37
2018-05-03T05:01:55.517Z,14.63
2018-05-03T05:04:23.987Z,14.53
2018-05-03T05:06:53.463Z,15.57
2018-05-03T05:09:22.201Z,15.83
2018-05-03T05:11:50.668Z,15.47
2018-05-03T05:14:19.123Z,13.60
2018-05-03T05:16:47.617Z,13.63
2018-05-03T05:19:16.101Z,13.50
2018-05-03T05:21:44.969Z,12.80
2018-05-03T05:24:13.530Z,14.53
2018-05-03T05:26:42.166Z,12.17
2018-05-03T05:29:10.642Z,12.23
2018-05-03T05:34:36.755Z,12.40
2018-05-03T05:37:05.252Z,13.27
2018-05-03T05:42:21.171Z,13.57
2018-05-03T05:44:49.699Z,15.00
2018-05-03T05:47:18.123Z,12.07
2018-05-03T05:49:56.961Z,11.80
2018-05-03T05:52:25.442Z,11.53
2018-05-03T05:54:54.120Z,9.70
2018-05-03T06:00:16.932Z,8.73
2018-05-03T06:02:45.373Z,9.37
2018-05-03T06:05:13.808Z,8.70
2018-05-03T06:07:42.231Z,7.43
2018-05-03T06:10:10.653Z,8.97
2018-05-03T06:12:39.841Z,9.37
2018-05-03T06:15:08.301Z,10.00
2018-05-03T06:17:37.589Z,10.33
2018-05-03T06:20:06.157Z,8.50
2018-05-03T06:22:35.389Z,9.07
2018-05-03T06:25:04.478Z,6.83
2018-05-03T06:27:32.941Z,9.43
2018-05-03T06:30:04.339Z,7.57
2018-05-03T06:32:32.837Z,7.60
2018-05-03T06:35:01.330Z,5.90
2018-05-03T06:37:30.229Z,10.70
2018-05-03T06:39:58.839Z,10.77
2018-05-03T06:42:27.309Z,7.47
2018-05-03T06:44:56.330Z,6.80
2018-05-03T06:50:29.049Z,6.70
2018-05-03T06:52:57.530Z,5.37
2018-05-03T06:55:26.044Z,5.70
2018-05-03T06:57:54.547Z,4.67
2018-05-03T07:06:31.562Z,7.47
2018-05-03T07:09:08.338Z,19.93
2018-05-03T07:11:43.865Z,6.83
2018-05-03T07:16:46.901Z,6.80
2018-05-03T07:19:15.409Z,4.53
2018-05-03T07:21:43.816Z,5.37
2018-05-03T07:24:12.977Z,4.93
2018-05-03T07:26:42.949Z,5.87
2018-05-03T07:29:11.365Z,4.27
2018-05-03T07:34:42.897Z,4.40
2018-05-03T07:37:11.553Z,4.60
2018-05-03T07:39:39.962Z,5.10
2018-05-03T07:42:14.962Z,5.67
2018-05-03T07:44:43.682Z,4.67
2018-05-03T07:47:12.334Z,3.33
2018-05-03T07:52:43.878Z,3.60
2018-05-03T07:55:14.107Z,6.43
2018-05-03T07:57:52.292Z,4.47
2018-05-03T08:00:21.768Z,4.03
2018-05-03T08:05:52.983Z,4.10
2018-05-03T08:08:21.407Z,4.10
2018-05-03T08:10:50.682Z,4.47
2018-05-03T08:13:19.154Z,5.10
2018-05-03T08:15:47.706Z,4.27
2018-05-03T08:18:16.880Z,4.20
2018-05-03T08:20:45.359Z,4.10
2018-05-03T08:23:13.852Z,4.23
2018-05-03T08:25:42.313Z,4.37
2018-05-03T08:28:10.843Z,4.17
2018-05-03T08:31:03.809Z,4.53
2018-05-03T08:33:32.283Z,4.60
2018-05-03T08:39:02.918Z,4.80
2018-05-03T08:44:34.979Z,5.27
2018-05-03T08:47:03.425Z,6.10
2018-05-03T08:49:32.043Z,4.40
2018-05-03T08:52:00.497Z,4.87
2018-05-03T09:00:53.340Z,3.80
2018-05-03T09:03:21.775Z,4.10
2018-05-03T09:05:50.266Z,3.77
2018-05-03T09:08:18.957Z,7.27
2018-05-03T09:10:48.311Z,16.57
2018-05-03T09:13:17.786Z,12.00
2018-05-03T09:18:31.986Z,4.63
2018-05-03T09:21:01.250Z,5.67
2018-05-03T09:23:30.113Z,3.83
2018-05-03T09:28:51.636Z,5.00
2018-05-03T09:31:20.082Z,5.83
2018-05-03T09:33:48.551Z,4.60
2018-05-03T09:36:33.392Z,4.83
2018-05-03T09:39:02.106Z,5.33
2018-05-03T09:41:31.358Z,4.70
2018-05-03T09:44:15.987Z,4.27
2018-05-03T09:46:44.398Z,4.47
2018-05-03T09:49:13.699Z,4.67
2018-05-03T09:51:42.978Z,5.63
2018-05-03T09:54:11.730Z,4.43
2018-05-03T09:56:56.958Z,3.50
2018-05-03T09:59:25.645Z,4.53
2018-05-03T10:01:54.229Z,3.93
2018-05-03T10:04:22.898Z,4.73
2018-05-03T10:06:51.315Z,5.77
2018-05-03T10:09:19.812Z,5.40
2018-05-03T10:11:48.328Z,5.73
2018-05-03T10:14:16.743Z,6.13
2018-05-03T10:16:45.252Z,6.40
2018-05-03T10:19:17.267Z,5.40
2018-05-03T10:21:46.451Z,5.83
2018-05-03T10:27:14.173Z,4.83
2018-05-03T10:29:42.675Z,5.20
2018-05-03T10:32:11.162Z,4.47
2018-05-03T10:37:44.870Z,5.73
2018-05-03T10:40:29.999Z,4.90
2018-05-03T10:42:59.242Z,5.27
2018-05-03T10:45:27.639Z,5.00
2018-05-03T10:50:59.038Z,6.10
2018-05-03T10:56:30.934Z,4.93
2018-05-03T10:58:59.495Z,5.30
2018-05-03T11:07:34.095Z,4.80
2018-05-03T11:10:02.501Z,5.63
2018-05-03T11:12:30.979Z,4.20
2018-05-03T11:14:59.571Z,5.10
2018-05-03T11:17:28.075Z,6.53
2018-05-03T11:19:56.596Z,5.80
2018-05-03T11:22:27.607Z,5.63
2018-05-03T11:24:56.105Z,6.10
2018-05-03T11:30:28.146Z,5.33
2018-05-03T11:36:03.990Z,5.17
2018-05-03T11:41:22.092Z,4.73
2018-05-03T11:43:52.571Z,5.10
2018-05-03T11:49:23.842Z,4.30
2018-05-03T11:51:52.470Z,4.83
2018-05-03T11:54:21.871Z,4.90
2018-05-03T11:56:50.438Z,3.90
2018-05-03T11:59:20.061Z,3.90
2018-05-03T12:01:53.885Z,4.00
2018-05-03T12:04:22.711Z,4.53
2018-05-03T12:06:54.103Z,5.00
2018-05-03T12:09:22.563Z,5.13
2018-05-03T12:11:51.270Z,4.57
2018-05-03T12:20:26.398Z,5.40
2018-05-03T12:25:57.691Z,4.70
2018-05-03T12:28:26.998Z,5.20
2018-05-03T12:30:55.455Z,5.20
2018-05-03T12:33:40.284Z,5.50
2018-05-03T12:39:01.728Z,6.17
2018-05-03T12:41:30.172Z,5.50
2018-05-03T12:50:10.738Z,5.23
2018-05-03T12:52:39.643Z,5.13
2018-05-03T13:01:19.344Z,5.67
2018-05-03T13:03:53.667Z,5.83
2018-05-03T13:06:22.161Z,5.30
2018-05-03T13:08:51.423Z,5.67
2018-05-03T13:11:19.893Z,5.57
2018-05-03T13:16:45.322Z,6.70
2018-05-03T13:19:14.599Z,6.03
2018-05-03T13:24:24.459Z,6.27
2018-05-03T13:26:54.008Z,5.93
2018-05-03T13:29:22.515Z,6.10
2018-05-03T13:34:28.360Z,6.60
2018-05-03T13:36:57.758Z,6.63
2018-05-03T13:39:31.768Z,6.30
2018-05-03T13:42:03.115Z,6.47
2018-05-03T13:44:31.546Z,6.63
2018-05-03T13:47:00.214Z,6.33
2018-05-03T13:49:28.699Z,6.47
2018-05-03T13:51:57.342Z,6.60
2018-05-03T13:54:25.986Z,6.17
2018-05-03T13:56:54.458Z,7.13
2018-05-03T13:59:23.266Z,5.73
2018-05-03T14:01:51.756Z,6.60
2018-05-03T14:04:20.793Z,7.90
2018-05-03T14:06:54.562Z,7.90
2018-05-03T14:09:23.099Z,7.73
2018-05-03T14:11:51.555Z,8.90
2018-05-03T14:14:20.068Z,7.23
2018-05-03T14:16:48.543Z,6.97
2018-05-03T14:22:35.800Z,7.10
2018-05-03T14:25:04.049Z,6.80
2018-05-03T14:27:32.490Z,6.50
2018-05-03T14:30:00.951Z,6.83
2018-05-03T14:32:30.177Z,5.63
2018-05-03T14:34:58.687Z,5.93
2018-05-03T14:37:29.056Z,6.53
2018-05-03T14:39:57.494Z,6.20
2018-05-03T14:42:26.722Z,6.60
2018-05-03T14:44:55.118Z,6.10
2018-05-03T14:47:31.647Z,6.60
2018-05-03T14:50:00.907Z,6.30
2018-05-03T14:52:29.375Z,6.93
2018-05-03T14:54:57.918Z,7.30
2018-05-03T14:57:26.426Z,6.80
2018-05-03T14:59:54.931Z,6.77
2018-05-03T15:02:23.396Z,6.63
2018-05-03T15:04:51.820Z,5.80
2018-05-03T15:07:22.284Z,6.60
2018-05-03T15:09:50.730Z,6.20
2018-05-03T15:12:19.436Z,5.67
2018-05-03T15:14:47.671Z,6.23
2018-05-03T15:17:16.160Z,5.93
2018-05-03T15:19:44.859Z,6.50
2018-05-03T15:25:11.409Z,6.40
2018-05-03T15:27:42.999Z,5.93
2018-05-03T15:30:17.547Z,5.83
2018-05-03T15:32:48.366Z,5.30
2018-05-03T15:35:16.637Z,5.30
2018-05-03T15:37:51.044Z,5.33
2018-05-03T15:40:36.715Z,5.40
2018-05-03T15:45:49.458Z,5.87
2018-05-03T15:48:47.765Z,5.80
2018-05-03T15:51:16.659Z,6.10
2018-05-03T15:53:56.475Z,5.20
2018-05-03T15:56:25.028Z,6.30
2018-05-03T15:58:53.458Z,6.00
2018-05-03T16:01:24.381Z,4.40
2018-05-03T16:03:58.246Z,5.37
2018-05-03T16:06:26.763Z,5.30
2018-05-03T16:09:07.324Z,6.23
2018-05-03T16:11:35.789Z,5.20
2018-05-03T16:14:05.594Z,6.43
2018-05-03T16:16:34.057Z,5.50
2018-05-03T16:19:03.365Z,6.10
2018-05-03T16:21:31.830Z,5.13
2018-05-03T16:24:00.275Z,6.47
2018-05-03T16:26:28.758Z,5.60
2018-05-03T16:28:57.333Z,4.67
2018-05-03T16:31:25.578Z,5.70
2018-05-03T16:33:54.056Z,5.23
2018-05-03T16:36:22.579Z,5.70
2018-05-03T16:38:50.958Z,4.90
2018-05-03T16:41:19.493Z,5.17
2018-05-03T16:43:47.975Z,4.70
2018-05-03T16:46:16.467Z,5.07
2018-05-03T16:48:56.295Z,5.70
2018-05-03T16:51:25.604Z,5.50
2018-05-03T16:53:54.026Z,6.07
2018-05-03T16:56:22.440Z,5.60
2018-05-03T16:58:51.122Z,5.40
2018-05-03T17:01:22.533Z,5.83
2018-05-03T17:03:51.002Z,4.97
2018-05-03T17:06:21.767Z,5.70
2018-05-03T17:08:50.200Z,5.40
2018-05-03T17:11:18.731Z,5.80
2018-05-03T17:13:47.142Z,5.43
2018-05-03T17:16:15.316Z,5.10
2018-05-03T17:18:45.044Z,6.50
2018-05-03T17:21:14.496Z,6.20
2018-05-03T17:23:47.397Z,5.60
2018-05-03T17:26:20.119Z,4.90
2018-05-03T17:28:48.663Z,6.07
2018-05-03T17:31:17.890Z,5.10
2018-05-03T17:33:46.364Z,4.73
2018-05-03T17:36:14.958Z,5.07
2018-05-03T17:38:43.503Z,4.83
2018-05-03T17:41:11.961Z,4.80
2018-05-03T17:43:40.464Z,5.17
2018-05-03T17:46:11.139Z,5.90
2018-05-03T17:48:39.691Z,4.87
2018-05-03T17:51:08.988Z,5.33
2018-05-03T17:53:37.432Z,5.07
2018-05-03T17:56:09.998Z,4.90
2018-05-03T17:58:40.471Z,5.17
2018-05-03T18:01:08.944Z,5.50
2018-05-03T18:03:38.178Z,5.50
2018-05-03T18:06:06.635Z,5.07
2018-05-03T18:08:36.020Z,5.70
2018-05-03T18:11:04.744Z,5.63
2018-05-03T18:13:33.162Z,5.30
2018-05-03T18:16:02.369Z,5.20
2018-05-03T18:18:32.898Z,4.47
2018-05-03T18:21:08.710Z,4.20
2018-05-03T18:23:37.113Z,5.23
2018-05-03T18:26:05.589Z,5.07
2018-05-03T18:28:34.206Z,5.50
2018-05-03T18:31:12.056Z,5.90
2018-05-03T18:33:40.518Z,4.90
2018-05-03T18:36:09.024Z,5.93
2018-05-03T18:41:41.926Z,5.87
2018-05-03T18:44:11.024Z,5.43
2018-05-03T18:46:44.160Z,5.33
2018-05-03T18:52:06.024Z,5.47
2018-05-03T18:54:34.466Z,5.63
2018-05-03T18:57:03.086Z,5.77
2018-05-03T18:59:35.279Z,5.50
2018-05-03T19:02:03.939Z,7.33
2018-05-03T19:04:33.427Z,5.90
2018-05-03T19:07:03.492Z,6.37
2018-05-03T19:09:34.643Z,7.60
2018-05-03T19:12:03.830Z,5.50
2018-05-03T19:14:32.351Z,6.73
2018-05-03T19:17:00.925Z,5.50
2018-05-03T19:19:29.400Z,6.97
2018-05-03T19:21:57.921Z,6.13
2018-05-03T19:27:26.964Z,6.60
2018-05-03T19:29:55.426Z,6.67
2018-05-03T19:32:23.896Z,5.37
2018-05-03T19:34:57.599Z,6.27
2018-05-03T19:40:08.719Z,6.93
2018-05-03T19:42:38.002Z,6.63
2018-05-03T19:45:06.533Z,5.73
2018-05-03T19:47:35.037Z,6.20
2018-05-03T19:50:26.054Z,6.70
2018-05-03T19:52:54.982Z,7.57
2018-05-03T19:55:28.880Z,6.80
2018-05-03T19:57:57.347Z,7.43
2018-05-03T20:03:39.618Z,7.33
2018-05-03T20:06:08.242Z,7.23
2018-05-03T20:08:36.638Z,8.40
2018-05-03T20:11:05.106Z,6.80
2018-05-03T20:13:37.606Z,7.33
2018-05-03T20:16:25.239Z,7.67
2018-05-03T20:18:53.722Z,7.10
2018-05-03T20:21:23.121Z,6.83
2018-05-03T20:23:56.858Z,7.20
2018-05-03T20:26:28.084Z,6.57
2018-05-03T20:28:59.166Z,7.73
2018-05-03T20:31:27.674Z,7.43
2018-05-03T20:34:06.649Z,6.60
2018-05-03T20:36:35.112Z,6.70
2018-05-03T20:39:03.075Z,6.70
2018-05-03T20:44:38.617Z,7.10
2018-05-03T20:47:07.107Z,6.87
2018-05-03T20:49:35.563Z,5.70
2018-05-03T20:54:58.525Z,6.50
2018-05-03T20:57:27.000Z,6.63
2018-05-03T21:02:31.316Z,6.70
2018-05-03T21:05:00.609Z,7.50
2018-05-03T21:07:57.045Z,6.37
2018-05-03T21:10:25.299Z,5.70
2018-05-03T21:12:57.890Z,7.00
2018-05-03T21:15:26.321Z,7.60
2018-05-03T21:17:55.060Z,7.43
2018-05-03T21:20:23.470Z,7.10
2018-05-03T21:22:51.877Z,6.93
2018-05-03T21:25:20.282Z,6.80
2018-05-03T21:27:49.109Z,6.70
2018-05-03T21:30:17.574Z,8.00
2018-05-03T21:32:46.251Z,7.53
2018-05-03T21:35:27.423Z,7.20
2018-05-03T21:40:33.145Z,6.80
2018-05-03T21:43:01.449Z,7.10
2018-05-03T21:45:31.082Z,5.93
2018-05-03T21:47:59.501Z,6.53
2018-05-03T21:50:27.890Z,7.13
2018-05-03T21:52:59.902Z,8.20
2018-05-03T21:55:28.556Z,7.80
2018-05-03T21:57:57.280Z,7.53
2018-05-03T22:00:26.525Z,7.93
2018-05-03T22:02:54.998Z,7.40
2018-05-03T22:05:23.441Z,9.43
2018-05-03T22:07:51.898Z,7.07
2018-05-03T22:10:20.336Z,6.27
2018-05-03T22:13:05.162Z,6.80
2018-05-03T22:15:46.822Z,6.97
2018-05-03T22:18:26.186Z,6.60
2018-05-03T22:20:54.665Z,7.07
2018-05-03T22:23:23.081Z,8.40
2018-05-03T22:25:51.519Z,6.67
2018-05-03T22:28:20.849Z,6.77
2018-05-03T22:30:49.284Z,6.73
2018-05-03T22:33:18.451Z,7.30
2018-05-03T22:35:58.170Z,7.30
2018-05-03T22:38:27.626Z,9.10
2018-05-03T22:40:56.088Z,6.17
2018-05-03T22:43:24.558Z,6.40
2018-05-03T22:45:53.020Z,7.80
2018-05-03T22:48:21.492Z,6.80
2018-05-03T22:50:50.037Z,6.43
2018-05-03T22:53:18.505Z,6.80
2018-05-03T22:55:46.942Z,6.20
2018-05-03T22:58:28.350Z,6.77
2018-05-03T23:00:57.998Z,6.90
2018-05-03T23:06:07.646Z,6.30
2018-05-03T23:11:28.432Z,5.60
2018-05-03T23:16:33.231Z,6.33
2018-05-03T23:21:52.941Z,5.43
2018-05-03T23:24:21.066Z,6.37
2018-05-03T23:26:55.888Z,5.83
2018-05-03T23:29:24.283Z,5.47
2018-05-03T23:31:52.684Z,6.00
2018-05-03T23:34:21.942Z,5.27
2018-05-03T23:36:50.377Z,5.47
2018-05-03T23:39:28.419Z,5.30
2018-05-03T23:42:27.831Z,6.43
2018-05-03T23:44:57.034Z,4.80
2018-05-03T23:50:19.216Z,5.97
2018-05-03T23:52:53.087Z,4.93
2018-05-03T23:55:28.233Z,5.17
2018-05-03T23:57:56.694Z,5.30
